Time;durP1;ratioP1;P1;durP2;ratioP2;P2;SDS_P1;SDS_P2;PMS_P1;PMS_P2;Temp;Humidity;BMP_temperature;BMP_pressure;BME280_temperature;BME280_humidity;BME280_pressure;Samples;Min_cycle;Max_cycle;Signal;HPM_P1;HPM_P2
2024/03/27 00:01:56;;;;;;;;;;;;;;;7.31;76.39;95739.41;6160470;23;19916;-91
2024/03/27 00:04:22;;;;;;;;;;;;;;;7.31;76.71;95734.13;6181807;23;19970;-92
2024/03/27 00:06:48;;;;;;;;;;;;;;;7.34;76.28;95727.03;6182878;23;19963;-92
2024/03/27 00:09:13;;;;;;;;;;;;;;;7.42;75.71;95724.31;6158380;23;20320;-91
2024/03/27 00:11:39;;;;;;;;;;;;;;;7.43;76.03;95719.00;6182802;23;19979;-92
2024/03/27 00:14:04;;;;;;;;;;;;;;;7.55;75.64;95718.03;6181198;23;20507;-92
2024/03/27 00:16:30;;;;;;;;;;;;;;;7.57;75.61;95704.75;6183973;23;19920;-92
2024/03/27 00:18:55;;;;;;;;;;;;;;;7.53;76.54;95692.41;6161022;23;19943;-92
2024/03/27 00:21:21;;;;;;;;;;;;;;;7.53;76.48;95677.38;6160582;23;19918;-92
2024/03/27 00:23:46;;;;;;;;;;;;;;;7.56;76.30;95674.69;6186091;23;19912;-93
2024/03/27 00:26:12;;;;;;;;;;;;;;;7.55;76.34;95678.22;6161552;23;19912;-92
2024/03/27 00:28:37;;;;;;;;;;;;;;;7.75;75.38;95687.78;6162231;23;20328;-94
2024/03/27 00:31:02;;;;;;;;;;;;;;;7.75;75.51;95693.09;6164188;23;19919;-92
2024/03/27 00:33:28;;;;;;;;;;;;;;;7.88;74.48;95679.72;6164916;23;19916;-93
2024/03/27 00:35:57;;;;;;;;;;;;;;;7.88;75.43;95669.09;6165694;23;20458;-93
2024/03/27 00:38:23;;;;;;;;;;;;;;;7.92;74.43;95664.63;6191266;23;20283;-92
2024/03/27 00:40:48;;;;;;;;;;;;;;;8.00;73.97;95656.56;6160902;23;19912;-93
2024/03/27 00:43:14;;;;;;;;;;;;;;;8.26;72.63;95643.91;6161901;23;19920;-92
2024/03/27 00:45:39;;;;;;;;;;;;;;;8.23;72.78;95644.81;6160853;23;20231;-92
2024/03/27 00:48:05;;;;;;;;;;;;;;;8.18;73.07;95635.16;6161155;23;19927;-91
2024/03/27 00:50:30;;;;;;;;;;;;;;;8.32;72.79;95627.91;6185670;23;19954;-92
2024/03/27 00:52:55;;;;;;;;;;;;;;;8.33;73.68;95634.09;6161140;23;19922;-92
2024/03/27 00:55:21;;;;;;;;;;;;;;;8.39;72.87;95644.69;6184996;23;19968;-92
2024/03/27 00:57:46;;;;;;;;;;;;;;;8.26;73.59;95638.59;6159939;23;20347;-92
2024/03/27 01:00:16;;;;;;;;;;;;;;;8.12;73.69;95630.78;6160303;23;19959;-92
2024/03/27 01:02:45;;;;;;;;;;;;;;;8.03;74.25;95635.31;6184716;23;20323;-92
2024/03/27 01:05:11;;;;;;;;;;;;;;;8.06;74.27;95638.81;6158949;23;19912;-92
2024/03/27 01:07:37;;;;;;;;;;;;;;;7.86;75.10;95627.56;6184520;23;19983;-93
2024/03/27 01:10:03;;;;;;;;;;;;;;;7.63;76.04;95620.69;6186113;23;19912;-92
2024/03/27 01:12:28;;;;;;;;;;;;;;;7.54;76.79;95599.56;6184442;23;19938;-93
2024/03/27 01:14:54;;;;;;;;;;;;;;;7.56;77.19;95591.56;6160080;23;19916;-93
2024/03/27 01:17:19;;;;;;;;;;;;;;;7.56;77.17;95595.09;6160164;23;19922;-93
2024/03/27 01:19:44;;;;;;;;;;;;;;;7.37;77.53;95597.03;6160611;23;20067;-93
2024/03/27 01:22:09;;;;;;;;;;;;;;;7.35;77.57;95600.63;6161490;23;19912;-93
2024/03/27 01:24:35;;;;;;;;;;;;;;;7.26;78.49;95604.22;6160995;23;19919;-93
2024/03/27 01:27:00;;;;;;;;;;;;;;;7.24;78.83;95599.84;6164708;23;19919;-92
2024/03/27 01:29:25;;;;;;;;;;;;;;;6.97;79.91;95592.97;6171056;23;19920;-93
2024/03/27 01:31:51;;;;;;;;;;;;;;;6.72;80.60;95584.31;6167021;23;19981;-93
2024/03/27 01:34:16;;;;;;;;;;;;;;;6.46;81.94;95587.09;6190538;23;19916;-92
2024/03/27 01:36:41;;;;;;;;;;;;;;;6.27;82.82;95576.59;6190419;23;19935;-93
2024/03/27 01:39:07;;;;;;;;;;;;;;;6.13;83.89;95558.19;6162483;23;19916;-93
2024/03/27 01:41:32;;;;;;;;;;;;;;;6.05;84.29;95551.16;6162812;23;19919;-91
2024/03/27 01:43:57;;;;;;;;;;;;;;;6.02;85.22;95551.16;6160768;23;19912;-93
2024/03/27 01:46:25;;;;;;;;;;;;;;;5.95;85.16;95537.09;6159695;23;19912;-94
2024/03/27 01:48:51;;;;;;;;;;;;;;;5.97;85.28;95521.19;6184974;23;19970;-93
2024/03/27 01:51:17;;;;;;;;;;;;;;;6.01;84.77;95529.13;6160651;23;19987;-92
2024/03/27 01:53:42;;;;;;;;;;;;;;;5.94;85.39;95529.13;6185316;23;19943;-93
2024/03/27 01:56:08;;;;;;;;;;;;;;;5.87;85.36;95529.13;6164106;23;19912;-93
2024/03/27 01:58:33;;;;;;;;;;;;;;;5.93;85.48;95540.63;6163184;23;20504;-93
2024/03/27 02:00:59;;;;;;;;;;;;;;;6.01;84.80;95552.06;6160842;23;19966;-93
2024/03/27 02:03:24;;;;;;;;;;;;;;;6.00;84.79;95563.53;6185324;23;20276;-93
2024/03/27 02:05:51;;;;;;;;;;;;;;;6.19;83.79;95559.03;6160659;23;19912;-91
2024/03/27 02:08:16;;;;;;;;;;;;;;;5.98;84.03;95568.81;6185486;23;19981;-91
2024/03/27 02:10:42;;;;;;;;;;;;;;;5.84;85.24;95567.94;6184733;23;19916;-93
2024/03/27 02:13:08;;;;;;;;;;;;;;;6.04;84.73;95575.88;6185409;23;19912;-92
2024/03/27 02:15:33;;;;;;;;;;;;;;;5.70;85.26;95581.25;6161776;23;19922;-92
2024/03/27 02:17:58;;;;;;;;;;;;;;;5.50;86.24;95567.16;6169830;23;19935;-93
2024/03/27 02:20:24;;;;;;;;;;;;;;;5.33;86.99;95567.22;6150398;23;19920;-94
2024/03/27 02:22:53;;;;;;;;;;;;;;;5.19;88.09;95554.00;6174837;23;20058;-95
2024/03/27 02:25:25;;;;;;;;;;;;;;;5.20;87.99;95558.41;6194837;23;19942;-93
2024/03/27 02:27:51;;;;;;;;;;;;;;;4.96;88.31;95550.50;6185704;23;19912;-94
2024/03/27 02:30:16;;;;;;;;;;;;;;;4.74;88.74;95554.91;6161046;23;19919;-95
2024/03/27 02:32:41;;;;;;;;;;;;;;;4.63;89.20;95552.25;6184942;23;19947;-93
2024/03/27 02:35:11;;;;;;;;;;;;;;;4.61;90.05;95547.00;6161821;23;19939;-93
2024/03/27 02:37:37;;;;;;;;;;;;;;;4.79;90.08;95563.69;6187647;23;19919;-94
2024/03/27 02:40:02;;;;;;;;;;;;;;;4.89;89.63;95562.84;6185838;23;20207;-92
2024/03/27 02:42:29;;;;;;;;;;;;;;;4.95;88.80;95564.59;6185187;23;19966;-91
2024/03/27 02:44:54;;;;;;;;;;;;;;;4.84;89.00;95567.25;6159272;23;20666;-93
2024/03/27 02:47:19;;;;;;;;;;;;;;;4.83;89.00;95569.00;6157942;23;19945;-91
2024/03/27 02:49:45;;;;;;;;;;;;;;;4.74;89.29;95554.91;6183577;23;20423;-90
2024/03/27 02:52:10;;;;;;;;;;;;;;;4.58;89.50;95554.91;6159154;23;19939;-92
2024/03/27 02:54:35;;;;;;;;;;;;;;;4.52;90.14;95556.66;6183782;23;19912;-93
2024/03/27 02:57:01;;;;;;;;;;;;;;;4.30;91.29;95555.72;6185712;23;19974;-95
2024/03/27 02:59:27;;;;;;;;;;;;;;;4.75;89.63;95557.56;6184276;23;19920;-93
2024/03/27 03:01:53;;;;;;;;;;;;;;;4.72;89.08;95552.25;6185092;23;19912;-93
2024/03/27 03:04:18;;;;;;;;;;;;;;;4.68;89.28;95557.53;6157968;23;19995;-93
2024/03/27 03:06:44;;;;;;;;;;;;;;;4.62;89.77;95553.16;6158707;23;19916;-92
2024/03/27 03:09:09;;;;;;;;;;;;;;;4.37;89.73;95555.75;6158357;23;19916;-92
2024/03/27 03:11:34;;;;;;;;;;;;;;;4.19;90.86;95547.78;6158592;23;19912;-92
2024/03/27 03:14:01;;;;;;;;;;;;;;;4.33;91.10;95553.09;6183822;23;19912;-92
2024/03/27 03:16:26;;;;;;;;;;;;;;;4.28;92.29;95552.22;6158781;23;19934;-93
2024/03/27 03:18:52;;;;;;;;;;;;;;;4.37;91.56;95557.50;6158226;23;19944;-94
2024/03/27 03:21:17;;;;;;;;;;;;;;;4.34;91.20;95563.66;6160110;23;19944;-93
2024/03/27 03:23:43;;;;;;;;;;;;;;;4.23;91.80;95581.22;6160235;23;19916;-93
2024/03/27 03:26:08;;;;;;;;;;;;;;;3.90;92.26;95578.47;6136587;23;20280;-93
2024/03/27 03:28:34;;;;;;;;;;;;;;;3.89;92.83;95572.31;6160326;23;19919;-93
2024/03/27 03:31:06;;;;;;;;;;;;;;;3.91;91.75;95553.88;6161617;23;19916;-94
2024/03/27 03:33:32;;;;;;;;;;;;;;;3.96;91.38;95546.84;6160817;23;19939;-92
2024/03/27 03:35:58;;;;;;;;;;;;;;;4.08;91.17;95525.78;6161354;23;20236;-93
2024/03/27 03:38:25;;;;;;;;;;;;;;;4.15;90.64;95522.28;6185686;23;19908;-93
2024/03/27 03:40:56;;;;;;;;;;;;;;;4.12;90.39;95503.81;6185546;23;19979;-94
2024/03/27 03:43:21;;;;;;;;;;;;;;;3.74;91.15;95494.06;6159756;23;19912;-93
2024/03/27 03:45:47;;;;;;;;;;;;;;;3.53;92.12;95476.38;6160606;23;19961;-94
2024/03/27 03:48:12;;;;;;;;;;;;;;;3.37;93.37;95478.97;6160260;23;19912;-93
2024/03/27 03:50:38;;;;;;;;;;;;;;;3.65;94.77;95482.59;6186022;23;19943;-93
2024/03/27 03:53:04;;;;;;;;;;;;;;;3.69;94.84;95474.72;6161487;23;19966;-93
2024/03/27 03:55:29;;;;;;;;;;;;;;;3.70;94.99;95476.47;6161309;23;19912;-93
2024/03/27 03:57:54;;;;;;;;;;;;;;;3.92;94.24;95472.09;6185986;23;19943;-92
2024/03/27 04:00:21;;;;;;;;;;;;;;;3.92;93.82;95480.00;6160575;23;19987;-92
2024/03/27 04:02:50;;;;;;;;;;;;;;;3.84;93.86;95481.78;6161601;23;19939;-93
2024/03/27 04:05:15;;;;;;;;;;;;;;;3.80;93.50;95483.50;6179522;23;20653;-92
2024/03/27 04:07:41;;;;;;;;;;;;;;;3.57;93.90;95490.47;6187338;23;19938;-94
2024/03/27 04:10:06;;;;;;;;;;;;;;;3.57;94.44;95486.06;6166261;23;20256;-93
2024/03/27 04:12:33;;;;;;;;;;;;;;;3.45;94.56;95480.78;6168990;23;19912;-94
2024/03/27 04:14:59;;;;;;;;;;;;;;;3.58;94.55;95484.31;6198666;23;19976;-93
2024/03/27 04:17:24;;;;;;;;;;;;;;;3.44;94.54;95499.19;6199175;23;19919;-93
2024/03/27 04:19:50;;;;;;;;;;;;;;;3.31;94.54;95501.78;6198488;23;19920;-93
2024/03/27 04:22:16;;;;;;;;;;;;;;;3.31;94.82;95493.00;6189377;23;19920;-93
2024/03/27 04:24:45;;;;;;;;;;;;;;;3.04;94.97;95499.00;6157853;23;19916;-93
2024/03/27 04:27:13;;;;;;;;;;;;;;;2.96;94.96;95495.41;6158010;23;20243;-92
2024/03/27 04:29:39;;;;;;;;;;;;;;;2.87;95.55;95490.09;6188185;23;19912;-94
2024/03/27 04:32:04;;;;;;;;;;;;;;;3.17;96.02;95474.50;6191150;23;19916;-93
2024/03/27 04:34:30;;;;;;;;;;;;;;;3.27;96.07;95476.28;6197404;23;19912;-93
2024/03/27 04:36:55;;;;;;;;;;;;;;;3.40;95.20;95489.50;6170729;23;19916;-94
2024/03/27 04:39:22;;;;;;;;;;;;;;;3.28;95.68;95496.47;6170925;23;19955;-93
2024/03/27 04:41:47;;;;;;;;;;;;;;;3.11;96.09;95502.53;6200307;23;19960;-93
2024/03/27 04:44:13;;;;;;;;;;;;;;;2.97;96.37;95512.97;6173694;23;19931;-93
2024/03/27 04:46:38;;;;;;;;;;;;;;;2.89;96.83;95510.31;6166642;23;19912;-94
2024/03/27 04:49:03;;;;;;;;;;;;;;;3.13;96.58;95514.84;6164941;23;19916;-94
2024/03/27 04:51:29;;;;;;;;;;;;;;;3.03;94.82;95513.91;6193501;23;19927;-94
2024/03/27 04:53:54;;;;;;;;;;;;;;;3.00;94.72;95523.53;6169916;23;19944;-95
2024/03/27 04:56:19;;;;;;;;;;;;;;;2.85;95.08;95518.16;6165538;23;19936;-94
2024/03/27 04:58:45;;;;;;;;;;;;;;;2.81;95.36;95501.47;6170576;23;19920;-93
2024/03/27 05:01:10;;;;;;;;;;;;;;;2.73;95.40;95488.28;6172717;23;19916;-94
2024/03/27 05:03:36;;;;;;;;;;;;;;;2.93;95.08;95482.25;6171852;23;19939;-94
2024/03/27 05:06:01;;;;;;;;;;;;;;;2.87;94.68;95482.19;6170873;23;19908;-93
2024/03/27 05:08:26;;;;;;;;;;;;;;;2.84;94.86;95475.16;6171294;23;19912;-93
2024/03/27 05:10:52;;;;;;;;;;;;;;;2.58;95.62;95467.09;6167388;23;19915;-94
2024/03/27 05:13:17;;;;;;;;;;;;;;;2.70;96.73;95464.56;6191895;23;20035;-94
2024/03/27 05:15:43;;;;;;;;;;;;;;;2.81;96.35;95454.97;6190872;23;19922;-94
2024/03/27 05:18:08;;;;;;;;;;;;;;;2.57;96.56;95454.81;6163480;23;20015;-94
2024/03/27 05:20:34;;;;;;;;;;;;;;;2.57;96.87;95470.59;6162903;23;19912;-94
2024/03/27 05:23:00;;;;;;;;;;;;;;;2.53;96.90;95474.06;6186895;23;19995;-93
2024/03/27 05:25:25;;;;;;;;;;;;;;;2.73;97.43;95471.56;6161759;23;19974;-95
2024/03/27 05:27:50;;;;;;;;;;;;;;;2.76;97.58;95461.94;6161489;23;19916;-94
2024/03/27 05:30:16;;;;;;;;;;;;;;;2.72;97.48;95475.06;6161829;23;19982;-93
2024/03/27 05:32:42;;;;;;;;;;;;;;;2.76;97.37;95477.75;6161447;23;19916;-94
2024/03/27 05:35:07;;;;;;;;;;;;;;;2.91;96.76;95468.19;6161652;23;19987;-93
2024/03/27 05:37:33;;;;;;;;;;;;;;;3.06;95.53;95470.91;6185625;23;19932;-93
2024/03/27 05:39:59;;;;;;;;;;;;;;;3.06;94.62;95458.59;6161663;23;19938;-94
2024/03/27 05:42:24;;;;;;;;;;;;;;;3.06;94.50;95444.56;6161291;23;20383;-93
2024/03/27 05:44:52;;;;;;;;;;;;;;;3.08;94.34;95446.34;6161362;23;19924;-94
2024/03/27 05:47:20;;;;;;;;;;;;;;;3.11;94.74;95434.94;6161580;23;19932;-94
2024/03/27 05:49:46;;;;;;;;;;;;;;;3.26;94.91;95445.56;6185917;23;19919;-94
2024/03/27 05:52:11;;;;;;;;;;;;;;;3.37;95.09;95444.72;6162049;23;20313;-93
2024/03/27 05:54:37;;;;;;;;;;;;;;;3.67;93.87;95425.47;6160412;23;19946;-94
2024/03/27 05:57:03;;;;;;;;;;;;;;;3.59;93.51;95418.44;6186022;23;19908;-95
2024/03/27 05:59:29;;;;;;;;;;;;;;;3.57;93.47;95428.09;6161353;23;19924;-94
2024/03/27 06:01:54;;;;;;;;;;;;;;;3.64;93.67;95425.44;6186175;23;19991;-94
2024/03/27 06:04:21;;;;;;;;;;;;;;;3.71;92.64;95429.88;6163757;23;19916;-94
2024/03/27 06:06:47;;;;;;;;;;;;;;;3.80;92.80;95424.63;6186779;23;19920;-95
2024/03/27 06:09:15;;;;;;;;;;;;;;;3.94;92.04;95420.25;6163160;23;19912;-95
2024/03/27 06:11:43;;;;;;;;;;;;;;;3.99;91.65;95412.34;6166834;23;19966;-96
2024/03/27 06:14:09;;;;;;;;;;;;;;;4.09;91.82;95414.13;6187643;23;19919;-94
2024/03/27 06:16:36;;;;;;;;;;;;;;;4.10;91.71;95411.47;6188038;23;19931;-94
2024/03/27 06:19:02;;;;;;;;;;;;;;;4.20;91.27;95404.44;6161210;23;19936;-95
2024/03/27 06:21:31;;;;;;;;;;;;;;;4.24;90.97;95400.03;6188255;23;19908;-96
2024/03/27 06:24:03;;;;;;;;;;;;;;;4.45;90.42;95401.78;6165090;23;19916;-94
2024/03/27 06:26:31;;;;;;;;;;;;;;;4.47;90.23;95400.03;6165853;23;19912;-95
2024/03/27 06:29:18;;;;;;;;;;;;;;;4.49;89.73;95400.91;6173365;23;19912;-95
2024/03/27 06:35:13;;;;;;;;;;;;;;;4.66;88.40;95392.97;6198594;23;19931;-96
2024/03/27 06:37:41;;;;;;;;;;;;;;;4.80;88.49;95389.41;6182919;23;19915;-94
2024/03/27 06:40:09;;;;;;;;;;;;;;;5.02;87.56;95386.69;6183191;23;19919;-93
2024/03/27 06:42:36;;;;;;;;;;;;;;;5.18;86.45;95392.84;6167731;23;19916;-94
2024/03/27 06:45:04;;;;;;;;;;;;;;;5.21;86.12;95401.59;6152395;23;19912;-94
2024/03/27 06:47:34;;;;;;;;;;;;;;;5.16;85.94;95398.09;6175087;23;19922;-95
2024/03/27 06:50:01;;;;;;;;;;;;;;;5.19;86.65;95387.53;6178490;23;19912;-95
2024/03/27 06:52:31;;;;;;;;;;;;;;;5.36;86.29;95390.97;6178821;23;19915;-94
2024/03/27 06:54:59;;;;;;;;;;;;;;;5.39;85.90;95387.44;6202428;23;19932;-95
2024/03/27 06:57:25;;;;;;;;;;;;;;;5.60;85.23;95382.03;6146059;23;19908;-95
2024/03/27 06:59:50;;;;;;;;;;;;;;;5.61;84.79;95381.16;6147016;23;19916;-95
2024/03/27 07:02:16;;;;;;;;;;;;;;;5.53;84.67;95379.44;6188789;23;19943;-95
2024/03/27 07:04:43;;;;;;;;;;;;;;;5.38;85.48;95385.69;6185992;23;19908;-96
2024/03/27 07:07:08;;;;;;;;;;;;;;;5.44;85.88;95382.13;6162091;23;19923;-95
2024/03/27 07:09:34;;;;;;;;;;;;;;;5.61;85.25;95377.66;6136779;23;19912;-95
2024/03/27 07:11:59;;;;;;;;;;;;;;;5.71;84.28;95383.75;6188117;23;19924;-94
2024/03/27 07:14:25;;;;;;;;;;;;;;;5.83;83.69;95371.31;6135358;23;20217;-94
2024/03/27 07:16:50;;;;;;;;;;;;;;;6.02;83.38;95369.44;6139090;23;20043;-96
2024/03/27 07:19:16;;;;;;;;;;;;;;;6.22;82.18;95364.00;6139683;23;19916;-95
2024/03/27 07:21:44;;;;;;;;;;;;;;;6.48;80.99;95371.72;6162318;23;19912;-95
2024/03/27 07:24:10;;;;;;;;;;;;;;;6.45;80.49;95386.75;6185462;23;19920;-96
2024/03/27 07:26:36;;;;;;;;;;;;;;;6.38;80.99;95385.94;6160307;23;19908;-96
2024/03/27 07:29:04;;;;;;;;;;;;;;;6.06;82.57;95386.19;6159606;23;20323;-95
2024/03/27 07:31:29;;;;;;;;;;;;;;;6.25;82.05;95398.41;6161415;23;19912;-96
2024/03/27 07:33:55;;;;;;;;;;;;;;;6.49;81.87;95405.25;6162378;23;19912;-95
2024/03/27 07:36:20;;;;;;;;;;;;;;;6.54;81.48;95411.38;6160313;23;19912;-93
2024/03/27 07:38:52;;;;;;;;;;;;;;;6.60;81.04;95413.09;6135678;23;19918;-94
2024/03/27 07:41:20;;;;;;;;;;;;;;;6.85;80.16;95406.69;6161898;23;19912;-94
2024/03/27 07:43:51;;;;;;;;;;;;;;;6.99;79.60;95414.47;6161282;23;19951;-94
2024/03/27 07:46:39;;;;;;;;;;;;;;;6.75;79.63;95420.03;6161205;23;19912;-93
2024/03/27 07:49:07;;;;;;;;;;;;;;;6.91;79.59;95422.53;6163373;23;20521;-94
2024/03/27 07:51:32;;;;;;;;;;;;;;;6.76;79.65;95421.81;6164400;23;19935;-95
2024/03/27 07:54:01;;;;;;;;;;;;;;;6.83;80.32;95429.66;6161833;23;19908;-95
2024/03/27 07:56:30;;;;;;;;;;;;;;;7.15;79.90;95425.81;6160658;23;19920;-94
2024/03/27 07:58:58;;;;;;;;;;;;;;;7.03;79.92;95415.34;6164208;23;19900;-94
2024/03/27 08:01:24;;;;;;;;;;;;;;;7.30;79.28;95414.16;6162704;23;19922;-95
2024/03/27 08:03:49;;;;;;;;;;;;;;;7.85;76.65;95398.41;6166645;23;19908;-95
2024/03/27 08:06:19;;;;;;;;;;;;;;;8.76;73.87;95395.22;6178309;23;19907;-94
2024/03/27 08:08:44;;;;;;;;;;;;;;;9.40;70.73;95383.41;6181136;23;19920;-95
2024/03/27 08:11:10;;;;;;;;;;;;;;;10.34;67.02;95378.69;6208490;23;19931;-94
2024/03/27 08:13:36;;;;;;;;;;;;;;;11.28;62.91;95375.38;6177364;23;19903;-94
2024/03/27 08:16:02;;;;;;;;;;;;;;;11.48;61.75;95380.16;6180956;23;19924;-94
2024/03/27 08:18:41;;;;;;;;;;;;;;;12.75;57.47;95379.84;6153653;23;19920;-95
2024/03/27 08:21:06;;;;;;;;;;;;;;;13.31;55.33;95381.50;6162075;23;19964;-95
2024/03/27 08:23:33;;;;;;;;;;;;;;;13.31;55.74;95377.03;6162472;23;19916;-94
2024/03/27 08:25:58;;;;;;;;;;;;;;;13.21;55.17;95377.38;6165192;23;19946;-92
2024/03/27 08:28:25;;;;;;;;;;;;;;;13.63;54.40;95376.81;6159795;23;19991;-93
2024/03/27 08:30:50;;;;;;;;;;;;;;;14.32;52.80;95372.38;6132206;23;19923;-96
2024/03/27 08:33:15;;;;;;;;;;;;;;;14.26;52.07;95354.72;6136859;23;20119;-94
2024/03/27 08:35:42;;;;;;;;;;;;;;;14.42;52.38;95355.00;6135800;23;19979;-94
2024/03/27 08:38:08;;;;;;;;;;;;;;;14.00;52.48;95358.44;6133141;23;19928;-92
2024/03/27 08:40:34;;;;;;;;;;;;;;;12.71;55.98;95371.97;6155185;23;19995;-93
2024/03/27 08:42:59;;;;;;;;;;;;;;;13.92;53.67;95359.66;6153927;23;19922;-92
2024/03/27 08:45:25;;;;;;;;;;;;;;;15.47;48.82;95355.03;6154856;23;19961;-92
2024/03/27 08:47:51;;;;;;;;;;;;;;;14.65;50.17;95345.16;6130790;23;19947;-91
2024/03/27 08:50:17;;;;;;;;;;;;;;;15.51;49.52;95351.28;6155472;23;20431;-91
2024/03/27 08:52:42;;;;;;;;;;;;;;;15.92;48.09;95334.25;6155649;23;19915;-90
2024/03/27 08:55:09;;;;;;;;;;;;;;;15.77;48.49;95333.16;6128707;23;19916;-92
2024/03/27 08:57:35;;;;;;;;;;;;;;;15.51;48.92;95329.78;6155019;23;19916;-93
2024/03/27 09:00:01;;;;;;;;;;;;;;;14.38;51.04;95339.97;6129493;23;19926;-91
2024/03/27 09:02:26;;;;;;;;;;;;;;;15.68;47.00;95336.25;6156082;23;19946;-90
2024/03/27 09:04:51;;;;;;;;;;;;;;;15.56;47.50;95349.25;6133644;23;19927;-93
2024/03/27 09:07:17;;;;;;;;;;;;;;;16.08;46.83;95346.91;6156376;23;19916;-92
2024/03/27 09:09:43;;;;;;;;;;;;;;;16.91;44.61;95354.59;6132443;23;19916;-93
2024/03/27 09:12:08;;;;;;;;;;;;;;;16.82;45.21;95355.06;6155980;23;19916;-92
2024/03/27 09:14:34;;;;;;;;;;;;;;;17.35;42.07;95353.28;6131243;23;20323;-92
2024/03/27 09:17:00;;;;;;;;;;;;;;;17.09;43.45;95349.22;6130839;23;20390;-90
2024/03/27 09:19:26;;;;;;;;;;;;;;;16.23;46.22;95360.59;6157102;23;19916;-93
2024/03/27 09:21:52;;;;;;;;;;;;;;;17.45;44.04;95362.63;6158647;23;19915;-91
2024/03/27 09:24:20;;;;;;;;;;;;;;;17.23;43.99;95359.28;6166068;23;19936;-92
2024/03/27 09:26:48;;;;;;;;;;;;;;;17.07;43.61;95370.84;6145702;23;19923;-90
2024/03/27 09:29:16;;;;;;;;;;;;;;;16.67;45.52;95371.91;6171670;23;19977;-91
2024/03/27 09:31:42;;;;;;;;;;;;;;;17.46;42.03;95375.16;6144498;23;19920;-91
2024/03/27 09:34:08;;;;;;;;;;;;;;;17.98;41.83;95364.34;6168030;23;19954;-91
2024/03/27 09:36:34;;;;;;;;;;;;;;;18.03;42.23;95370.34;6180689;23;19923;-92
2024/03/27 09:39:00;;;;;;;;;;;;;;;18.26;42.14;95376.34;6155841;23;19918;-91
2024/03/27 09:41:25;;;;;;;;;;;;;;;17.78;43.35;95378.03;6129640;23;19916;-91
2024/03/27 09:43:51;;;;;;;;;;;;;;;18.07;43.27;95396.22;6155641;23;19916;-92
2024/03/27 09:46:16;;;;;;;;;;;;;;;17.52;44.57;95393.69;6153708;23;19916;-92
2024/03/27 09:48:42;;;;;;;;;;;;;;;17.60;44.54;95402.25;6177402;23;19916;-90
2024/03/27 09:51:08;;;;;;;;;;;;;;;18.22;42.61;95410.69;6153054;23;20391;-91
2024/03/27 09:53:35;;;;;;;;;;;;;;;18.25;42.04;95402.41;6154464;23;19923;-91
2024/03/27 09:56:01;;;;;;;;;;;;;;;18.53;41.92;95409.88;6129670;23;20047;-92
2024/03/27 09:58:30;;;;;;;;;;;;;;;18.37;41.67;95403.59;6154691;23;20425;-91
2024/03/27 10:00:55;;;;;;;;;;;;;;;18.52;40.86;95418.94;6180100;23;19923;-92
2024/03/27 10:03:22;;;;;;;;;;;;;;;18.25;41.64;95425.84;6153385;23;19912;-90
2024/03/27 10:05:48;;;;;;;;;;;;;;;17.49;42.93;95437.00;6129028;23;19947;-89
2024/03/27 10:08:14;;;;;;;;;;;;;;;17.67;41.84;95444.13;6128250;23;19916;-92
2024/03/27 10:10:39;;;;;;;;;;;;;;;18.10;41.02;95436.50;6129403;23;19916;-90
2024/03/27 10:13:05;;;;;;;;;;;;;;;18.67;39.45;95444.22;6128994;23;19912;-90
2024/03/27 10:15:34;;;;;;;;;;;;;;;17.88;41.64;95455.66;6156767;23;19912;-91
2024/03/27 10:17:59;;;;;;;;;;;;;;;17.97;41.67;95451.63;6152894;23;19927;-91
2024/03/27 10:20:25;;;;;;;;;;;;;;;19.27;39.50;95457.09;6153899;23;20014;-91
2024/03/27 10:22:50;;;;;;;;;;;;;;;18.45;40.10;95464.31;6154867;23;19978;-90
2024/03/27 10:25:16;;;;;;;;;;;;;;;18.91;39.58;95452.81;6154082;23;20400;-91
2024/03/27 10:27:42;;;;;;;;;;;;;;;18.70;40.60;95454.91;6128040;23;19919;-91
2024/03/27 10:30:10;;;;;;;;;;;;;;;19.45;39.53;95456.91;6154803;23;19916;-91
2024/03/27 10:32:39;;;;;;;;;;;;;;;19.43;40.09;95453.41;6154071;23;19912;-92
2024/03/27 10:35:04;;;;;;;;;;;;;;;19.77;39.12;95435.22;6151753;23;19923;-89
2024/03/27 10:37:31;;;;;;;;;;;;;;;19.88;38.83;95440.88;6152973;23;19920;-91
2024/03/27 10:39:59;;;;;;;;;;;;;;;18.94;40.59;95431.91;6153962;23;19965;-91
2024/03/27 10:42:25;;;;;;;;;;;;;;;17.99;43.77;95438.03;6153458;23;19975;-92
2024/03/27 10:45:00;;;;;;;;;;;;;;;19.27;41.33;95433.63;6151345;23;19924;-91
2024/03/27 10:47:35;;;;;;;;;;;;;;;18.19;43.49;95448.63;6157654;23;19916;-92
2024/03/27 10:50:03;;;;;;;;;;;;;;;17.78;43.49;95454.41;6157177;23;19916;-90
2024/03/27 10:52:31;;;;;;;;;;;;;;;17.09;45.66;95459.66;6127032;23;20284;-89
2024/03/27 10:54:56;;;;;;;;;;;;;;;17.82;43.43;95457.78;6176188;23;19916;-92
2024/03/27 10:57:22;;;;;;;;;;;;;;;18.74;41.16;95464.56;6152651;23;20686;-90
2024/03/27 10:59:49;;;;;;;;;;;;;;;19.63;38.05;95456.78;6127195;23;19912;-90
2024/03/27 11:02:16;;;;;;;;;;;;;;;18.02;42.23;95457.66;6152501;23;19966;-92
2024/03/27 11:04:42;;;;;;;;;;;;;;;18.73;40.84;95476.31;6127654;23;20010;-91
2024/03/27 11:07:08;;;;;;;;;;;;;;;18.10;41.84;95476.09;6151921;23;20268;-90
2024/03/27 11:09:34;;;;;;;;;;;;;;;17.49;43.81;95485.50;6127372;23;19920;-91
2024/03/27 11:12:03;;;;;;;;;;;;;;;16.41;45.38;95497.81;6153409;23;19916;-92
2024/03/27 11:14:35;;;;;;;;;;;;;;;17.52;43.45;95485.34;6133862;23;19916;-92
2024/03/27 11:17:02;;;;;;;;;;;;;;;19.09;41.03;95473.41;6135694;23;19920;-91
2024/03/27 11:19:37;;;;;;;;;;;;;;;20.47;37.47;95468.84;6157998;23;19916;-91
2024/03/27 11:22:10;;;;;;;;;;;;;;;19.80;38.51;95477.47;6155683;23;19927;-92
2024/03/27 11:24:36;;;;;;;;;;;;;;;19.40;40.61;95487.84;6166235;23;19992;-91
2024/03/27 11:27:02;;;;;;;;;;;;;;;18.02;43.66;95490.00;6158598;23;19916;-91
2024/03/27 11:29:28;;;;;;;;;;;;;;;17.08;45.94;95485.72;6159473;23;19959;-90
2024/03/27 11:31:56;;;;;;;;;;;;;;;17.17;46.11;95496.03;6134283;23;19932;-90
2024/03/27 11:34:22;;;;;;;;;;;;;;;19.23;41.84;95502.34;6157515;23;19923;-91
2024/03/27 11:36:47;;;;;;;;;;;;;;;19.53;41.42;95498.84;6159859;23;20607;-91
2024/03/27 11:39:14;;;;;;;;;;;;;;;19.10;42.74;95512.97;6163767;23;19916;-91
2024/03/27 11:41:41;;;;;;;;;;;;;;;19.29;42.82;95515.50;6185720;23;19920;-92
2024/03/27 11:44:06;;;;;;;;;;;;;;;16.79;47.97;95532.00;6158091;23;19962;-90
2024/03/27 11:46:33;;;;;;;;;;;;;;;16.20;49.95;95530.22;6155829;23;19916;-91
2024/03/27 11:49:02;;;;;;;;;;;;;;;16.53;49.21;95528.69;6152447;23;19958;-89
2024/03/27 11:51:28;;;;;;;;;;;;;;;16.31;50.43;95533.28;6182271;23;19916;-91
2024/03/27 11:53:54;;;;;;;;;;;;;;;15.45;53.42;95542.31;6132044;23;20243;-90
2024/03/27 11:56:21;;;;;;;;;;;;;;;14.77;55.74;95557.53;6181126;23;19916;-91
2024/03/27 11:58:46;;;;;;;;;;;;;;;14.20;59.06;95560.53;6128257;23;19995;-88
2024/03/27 12:01:13;;;;;;;;;;;;;;;13.63;62.26;95567.00;6154910;23;19935;-89
2024/03/27 12:03:39;;;;;;;;;;;;;;;12.82;64.52;95587.38;6162067;23;19920;-89
2024/03/27 12:06:04;;;;;;;;;;;;;;;12.35;66.57;95579.88;6166336;23;20239;-89
2024/03/27 12:08:33;;;;;;;;;;;;;;;12.00;67.38;95598.63;6155128;23;19919;-90
2024/03/27 12:10:58;;;;;;;;;;;;;;;12.12;67.64;95608.13;6155646;23;20558;-89
2024/03/27 12:13:24;;;;;;;;;;;;;;;12.27;66.92;95607.69;6179744;23;20614;-88
2024/03/27 12:15:52;;;;;;;;;;;;;;;11.71;67.97;95619.84;6152490;23;19912;-88
2024/03/27 12:18:17;;;;;;;;;;;;;;;11.55;68.67;95627.38;6129455;23;19922;-88
2024/03/27 12:20:42;;;;;;;;;;;;;;;11.45;69.25;95636.50;6157418;23;19939;-89
2024/03/27 12:23:08;;;;;;;;;;;;;;;11.78;68.13;95643.69;6128895;23;19923;-88
2024/03/27 12:25:33;;;;;;;;;;;;;;;11.56;67.98;95664.72;6152749;23;20386;-88
2024/03/27 12:28:04;;;;;;;;;;;;;;;11.86;67.93;95661.34;6152783;23;19938;-89
2024/03/27 12:30:30;;;;;;;;;;;;;;;11.95;68.06;95674.47;6152330;23;19998;-90
2024/03/27 12:32:55;;;;;;;;;;;;;;;11.92;67.24;95682.56;6158534;23;19932;-90
2024/03/27 12:35:21;;;;;;;;;;;;;;;11.40;69.18;95679.34;6135136;23;20460;-89
2024/03/27 12:37:47;;;;;;;;;;;;;;;11.34;69.62;95679.47;6158295;23;19912;-91
2024/03/27 12:40:13;;;;;;;;;;;;;;;11.28;69.49;95679.63;6158091;23;19916;-89
2024/03/27 12:42:39;;;;;;;;;;;;;;;11.45;69.17;95669.44;6189445;23;20630;-89
2024/03/27 12:45:07;;;;;;;;;;;;;;;11.80;67.63;95667.69;6192232;23;19931;-90
2024/03/27 12:47:34;;;;;;;;;;;;;;;12.10;67.13;95668.75;6140187;23;19916;-91
2024/03/27 12:50:00;;;;;;;;;;;;;;;12.83;64.28;95658.69;6162165;23;20332;-90
2024/03/27 12:52:25;;;;;;;;;;;;;;;12.46;64.62;95669.56;6189677;23;19935;-89